Wrecclesham, United Kingdom

10:08 AM GMT on December 03, 2016 (GMT +0000)
Bourne Dene | | Change Station

Elev 288 ft 51.19 °N, 0.81 °W | Updated 8 minutes ago

Mostly Cloudy
Mostly Cloudy
41.0 °F
Feels Like 41 °F
N
1.2
Wind Variable Wind from West
Gusts 2.5 mph

Today
High -- | Low -- °F
--% Chance of Precip.
Yesterday
High -- | Low -- °F
Precip. -- in
Pressure 30.27 in
Visibility 6.2 miles
Clouds Mostly Cloudy 3800 ft
Windchill 41 °F
Dew Point 39 °F
Humidity 94%
Rainfall 0.00 in
Snow Depth Not available.
7:48 AM 3:57 PM
Waxing Crescent, 14% visible
METAR EGLF 030950Z 07006KT 9999 BKN038 05/02 Q1025
Pressure 30.27 in
Visibility 6.2 miles
Clouds Mostly Cloudy 3800 ft
Windchill 41 °F
Dew Point 39 °F
Humidity 94%
Rainfall 0.00 in
Snow Depth Not available.
7:48 AM 3:57 PM
Waxing Crescent, 14% visible
METAR EGLF 030950Z 07006KT 9999 BKN038 05/02 Q1025

10-Day Weather Forecast

×

Almanac

Astronomy

Dec. 03, 2016 Rise Set
Actual Time
Civil Twilight
Nautical Twilight
Astronomical Twilight
Moon
Length of Visible Light
Length of Day
Tomorrow will be .
, % of the Moon is Illuminated

Today's Extremes

Country Highs Country Lows

Community

WunderPhotos

Upload Photos

1,955,434 photos uploaded!

WunderBlog® & News

Nearby

Air Quality

  Air Quality AQ Index Pollutant
Not available.

Snow Depth

Station Depth Elevation

Earthquake Activity

City Distance Mag. Time & Date
Minimum magnitude displayed is 2.5.

Coastal Water Temperatures

Place Temperature

Stations

Nearby Weather Stations

Station Location Temp. Windchill Dew Point Humidity Wind Precip. Elev Updated Type